createdAt,value
2018-04-01T00:01:13.213Z,43.10
2018-04-01T00:03:40.813Z,42.30
2018-04-01T00:06:08.440Z,42.10
2018-04-01T00:08:36.037Z,42.10
2018-04-01T00:11:04.417Z,42.20
2018-04-01T00:13:32.788Z,42.20
2018-04-01T00:16:01.172Z,42.80
2018-04-01T00:18:28.774Z,42.10
2018-04-01T00:20:56.393Z,42.10
2018-04-01T00:23:24.002Z,42.20
2018-04-01T00:25:51.608Z,42.20
2018-04-01T00:28:19.213Z,42.10
2018-04-01T00:30:46.840Z,42.50
2018-04-01T00:33:14.444Z,42.10
2018-04-01T00:35:42.829Z,41.90
2018-04-01T00:38:10.440Z,41.80
2018-04-01T00:40:38.058Z,42.00
2018-04-01T00:43:06.432Z,41.90
2018-04-01T00:45:34.802Z,41.80
2018-04-01T00:48:02.423Z,41.80
2018-04-01T00:50:30.021Z,41.80
2018-04-01T00:52:57.636Z,41.80
2018-04-01T00:55:25.250Z,41.80
2018-04-01T00:57:52.860Z,41.70
2018-04-01T01:00:20.481Z,41.70
2018-04-01T01:02:48.094Z,41.70
2018-04-01T01:05:15.695Z,41.80
2018-04-01T01:07:43.312Z,41.60
2018-04-01T01:10:10.928Z,41.70
2018-04-01T01:12:38.544Z,41.70
2018-04-01T01:15:06.926Z,41.80
2018-04-01T01:17:34.555Z,41.70
2018-04-01T01:20:02.930Z,42.20
2018-04-01T01:22:30.531Z,41.50
2018-04-01T01:24:58.233Z,41.70
2018-04-01T01:27:25.846Z,41.60
2018-04-01T01:29:53.489Z,41.60
2018-04-01T01:32:21.100Z,41.40
2018-04-01T01:34:48.712Z,41.40
2018-04-01T01:37:16.320Z,41.40
2018-04-01T01:39:44.693Z,41.40
2018-04-01T01:42:12.304Z,41.30
2018-04-01T01:44:39.921Z,41.30
2018-04-01T01:47:08.292Z,41.60
2018-04-01T01:49:35.985Z,41.40
2018-04-01T01:52:04.364Z,41.30
2018-04-01T01:54:32.738Z,41.40
2018-04-01T01:57:00.357Z,41.30
2018-04-01T01:59:27.965Z,41.20
2018-04-01T02:01:55.578Z,41.30
2018-04-01T02:04:23.188Z,41.30
2018-04-01T02:06:50.785Z,41.30
2018-04-01T02:09:19.165Z,41.30
2018-04-01T02:11:47.552Z,41.30
2018-04-01T02:14:15.937Z,41.20
2018-04-01T02:16:44.304Z,41.20
2018-04-01T02:19:12.685Z,41.20
2018-04-01T02:21:40.306Z,41.10
2018-04-01T02:24:07.908Z,41.20
2018-04-01T02:26:35.528Z,41.20
2018-04-01T02:29:03.128Z,41.30
2018-04-01T02:31:30.759Z,41.20
2018-04-01T02:33:58.349Z,41.20
2018-04-01T02:36:25.974Z,41.20
2018-04-01T02:38:53.584Z,41.20
2018-04-01T02:41:21.193Z,41.10
2018-04-01T02:43:48.808Z,41.10
2018-04-01T02:46:16.429Z,41.10
2018-04-01T02:48:44.237Z,41.10
2018-04-01T02:51:11.819Z,41.10
2018-04-01T02:53:39.434Z,41.00
2018-04-01T02:56:07.038Z,41.00
2018-04-01T02:58:34.655Z,41.10
2018-04-01T03:01:02.269Z,41.10
2018-04-01T03:03:29.893Z,40.90
2018-04-01T03:05:57.508Z,41.00
2018-04-01T03:08:25.125Z,40.90
2018-04-01T03:10:53.499Z,40.90
2018-04-01T03:13:21.869Z,40.90
2018-04-01T03:15:50.259Z,40.90
2018-04-01T03:18:17.862Z,40.90
2018-04-01T03:20:45.482Z,40.90
2018-04-01T03:23:13.844Z,40.90
2018-04-01T03:25:42.961Z,40.90
2018-04-01T03:28:11.331Z,40.90
2018-04-01T03:30:40.447Z,40.90
2018-04-01T03:33:08.812Z,40.90
2018-04-01T03:35:36.428Z,40.90
2018-04-01T03:38:04.036Z,40.80
2018-04-01T03:40:31.657Z,40.90
2018-04-01T03:42:59.269Z,40.90
2018-04-01T03:45:28.373Z,40.80
2018-04-01T03:47:55.991Z,40.70
2018-04-01T03:50:23.634Z,40.70
2018-04-01T03:52:51.993Z,40.80
2018-04-01T03:55:20.373Z,40.80
2018-04-01T03:57:47.984Z,40.70
2018-04-01T04:00:15.593Z,40.80
2018-04-01T04:02:43.201Z,40.80
2018-04-01T04:05:10.811Z,40.80
2018-04-01T04:07:38.420Z,40.70
2018-04-01T04:10:06.036Z,40.80
2018-04-01T04:12:33.649Z,40.70
2018-04-01T04:15:02.033Z,40.70
2018-04-01T04:17:29.693Z,40.70
2018-04-01T04:19:57.257Z,40.70
2018-04-01T04:22:25.633Z,40.80
2018-04-01T04:24:53.999Z,40.70
2018-04-01T04:27:21.621Z,40.70
2018-04-01T04:29:49.229Z,40.70
2018-04-01T04:32:16.829Z,40.70
2018-04-01T04:34:44.444Z,40.70
2018-04-01T04:37:12.241Z,40.70
2018-04-01T04:39:39.852Z,40.60
2018-04-01T04:42:07.464Z,40.90
2018-04-01T04:44:35.081Z,40.60
2018-04-01T04:47:02.689Z,40.60
2018-04-01T04:49:31.069Z,40.50
2018-04-01T04:51:58.676Z,40.50
2018-04-01T04:54:26.292Z,40.50
2018-04-01T04:56:53.893Z,40.50
2018-04-01T04:59:22.284Z,40.50
2018-04-01T05:01:50.665Z,40.50
2018-04-01T05:04:19.041Z,40.40
2018-04-01T05:06:47.412Z,40.50
2018-04-01T05:09:15.029Z,40.50
2018-04-01T05:11:42.634Z,40.50
2018-04-01T05:14:10.252Z,40.40
2018-04-01T05:16:37.856Z,40.40
2018-04-01T05:19:05.464Z,40.50
2018-04-01T05:21:33.073Z,40.50
2018-04-01T05:24:00.689Z,41.10
2018-04-01T05:26:29.064Z,40.50
2018-04-01T05:28:57.446Z,40.30
2018-04-01T05:31:25.082Z,40.30
2018-04-01T05:33:52.688Z,40.30
2018-04-01T05:36:20.316Z,40.20
2018-04-01T05:38:49.429Z,40.20
2018-04-01T05:41:18.542Z,40.20
2018-04-01T05:43:46.918Z,40.20
2018-04-01T05:46:14.527Z,40.20
2018-04-01T05:48:42.140Z,41.10
2018-04-01T05:51:09.746Z,40.60
2018-04-01T05:53:37.365Z,40.50
2018-04-01T05:56:04.986Z,41.40
2018-04-01T05:58:32.604Z,40.60
2018-04-01T06:01:00.216Z,40.00
2018-04-01T06:03:27.808Z,39.70
2018-04-01T06:05:55.431Z,39.20
2018-04-01T06:08:23.040Z,39.80
2018-04-01T06:10:50.655Z,39.30
2018-04-01T06:13:19.065Z,40.50
2018-04-01T06:15:46.672Z,40.40
2018-04-01T06:18:14.277Z,40.10
2018-04-01T06:20:41.889Z,40.00
2018-04-01T06:23:09.506Z,40.30
2018-04-01T06:25:37.173Z,40.10
2018-04-01T06:28:04.789Z,39.70
2018-04-01T06:30:32.411Z,39.60
2018-04-01T06:33:00.049Z,39.70
2018-04-01T06:35:27.648Z,39.50
2018-04-01T06:37:55.263Z,39.40
2018-04-01T06:40:23.629Z,39.40
2018-04-01T06:42:51.244Z,39.50
2018-04-01T06:45:18.902Z,39.40
2018-04-01T06:47:46.509Z,39.20
2018-04-01T06:50:14.178Z,39.50
2018-04-01T06:52:41.787Z,38.90
2018-04-01T06:55:10.165Z,39.60
2018-04-01T06:57:37.770Z,39.00
2018-04-01T07:00:05.392Z,39.20
2018-04-01T07:02:33.019Z,39.30
2018-04-01T07:05:00.617Z,39.00
2018-04-01T07:07:29.737Z,39.20
2018-04-01T07:10:02.824Z,39.40
2018-04-01T07:12:31.240Z,39.20
2018-04-01T07:14:58.848Z,39.00
2018-04-01T07:17:26.470Z,39.10
2018-04-01T07:19:54.103Z,39.60
2018-04-01T07:22:21.745Z,40.10
2018-04-01T07:24:49.348Z,40.20
2018-04-01T07:27:17.729Z,39.60
2018-04-01T07:29:46.150Z,39.90
2018-04-01T07:32:13.733Z,39.90
2018-04-01T07:34:41.345Z,39.40
2018-04-01T07:37:09.729Z,39.40
2018-04-01T07:39:38.093Z,40.00
2018-04-01T07:42:05.716Z,39.90
2018-04-01T07:44:33.333Z,40.30
2018-04-01T07:47:01.705Z,40.40
2018-04-01T07:49:30.088Z,40.10
2018-04-01T07:51:57.729Z,40.00
2018-04-01T07:54:25.325Z,40.10
2018-04-01T07:56:53.713Z,40.40
2018-04-01T07:59:21.319Z,40.30
2018-04-01T08:01:49.296Z,40.20
2018-04-01T08:04:17.128Z,40.20
2018-04-01T08:06:45.516Z,40.20
2018-04-01T08:09:13.888Z,40.40
2018-04-01T08:11:42.254Z,40.40
2018-04-01T08:14:09.862Z,40.30
2018-04-01T08:16:37.468Z,40.50
2018-04-01T08:19:05.081Z,40.40
2018-04-01T08:21:32.694Z,40.40
2018-04-01T08:24:00.313Z,40.40
2018-04-01T08:26:27.928Z,40.40
2018-04-01T08:28:55.541Z,40.40
2018-04-01T08:31:23.174Z,40.50
2018-04-01T08:33:50.782Z,40.40
2018-04-01T08:36:18.414Z,40.40
2018-04-01T08:38:46.813Z,40.50
2018-04-01T08:41:14.414Z,40.40
2018-04-01T08:43:42.037Z,40.40
2018-04-01T08:46:10.413Z,40.60
2018-04-01T08:48:38.040Z,40.50
2018-04-01T08:51:05.660Z,40.60
2018-04-01T08:53:34.025Z,40.70
2018-04-01T08:56:01.653Z,40.70
2018-04-01T08:58:29.295Z,40.80
2018-04-01T09:00:56.921Z,40.80
2018-04-01T09:03:24.529Z,40.70
2018-04-01T09:05:52.149Z,40.90
2018-04-01T09:08:19.765Z,40.70
2018-04-01T09:10:47.373Z,40.80
2018-04-01T09:13:14.982Z,40.80
2018-04-01T09:15:42.605Z,40.80
2018-04-01T09:18:11.726Z,41.00
2018-04-01T09:20:40.118Z,40.70
2018-04-01T09:23:08.477Z,40.90
2018-04-01T09:25:36.088Z,40.70
2018-04-01T09:28:03.702Z,40.90
2018-04-01T09:30:32.087Z,41.00
2018-04-01T09:32:59.689Z,41.10
2018-04-01T09:35:27.305Z,40.90
2018-04-01T09:37:54.918Z,41.10
2018-04-01T09:40:22.573Z,41.10
2018-04-01T09:42:50.957Z,41.10
2018-04-01T09:45:19.344Z,41.10
2018-04-01T09:47:46.982Z,41.10
2018-04-01T09:50:14.600Z,41.10
2018-04-01T09:52:42.210Z,41.30
2018-04-01T09:55:09.817Z,41.10
2018-04-01T09:57:37.433Z,41.20
2018-04-01T10:00:05.052Z,41.30
2018-04-01T10:02:33.161Z,41.20
2018-04-01T10:05:10.026Z,41.30
2018-04-01T10:07:38.160Z,41.30
2018-04-01T10:10:07.045Z,41.30
2018-04-01T10:12:35.913Z,41.40
2018-04-01T10:15:04.022Z,41.40
2018-04-01T10:17:32.891Z,41.50
2018-04-01T10:20:01.054Z,41.50
2018-04-01T10:22:29.872Z,41.70
2018-04-01T10:24:58.003Z,41.70
2018-04-01T10:27:26.096Z,42.40
2018-04-01T10:29:54.221Z,41.70
2018-04-01T10:32:22.374Z,41.70
2018-04-01T10:34:51.261Z,41.80
2018-04-01T10:37:19.358Z,41.80
2018-04-01T10:39:47.457Z,41.80
2018-04-01T10:42:15.565Z,41.90
2018-04-01T10:44:43.682Z,42.10
2018-04-01T10:47:11.778Z,42.00
2018-04-01T10:49:40.644Z,42.10
2018-04-01T10:52:08.749Z,42.10
2018-04-01T10:54:37.134Z,42.10
2018-04-01T10:57:04.741Z,42.00
2018-04-01T10:59:32.348Z,42.20
2018-04-01T11:02:00.009Z,41.70
2018-04-01T11:04:27.628Z,41.70
2018-04-01T11:16:52.560Z,42.20
2018-04-01T11:19:20.940Z,42.90
2018-04-01T11:21:48.566Z,42.60
2018-04-01T11:24:20.145Z,43.10
2018-04-01T11:26:47.762Z,42.30
2018-04-01T11:29:15.382Z,43.00
2018-04-01T11:31:42.985Z,43.00
2018-04-01T11:34:10.620Z,42.90
2018-04-01T11:36:38.233Z,42.40
2018-04-01T11:46:33.988Z,42.50
2018-04-01T11:49:02.373Z,42.80
2018-04-01T11:51:30.747Z,43.30
2018-04-01T11:53:59.156Z,43.60
2018-04-01T11:56:26.772Z,43.30
2018-04-01T11:58:54.372Z,43.90
2018-04-01T12:01:22.000Z,43.70
2018-04-01T12:03:49.604Z,43.20
2018-04-01T12:08:46.347Z,44.00
2018-04-01T12:11:14.724Z,43.40
2018-04-01T12:13:42.336Z,43.10
2018-04-01T12:16:09.948Z,43.40
2018-04-01T12:18:37.573Z,44.30
2018-04-01T12:21:05.202Z,43.90
2018-04-01T12:23:33.572Z,44.40
2018-04-01T12:26:01.187Z,44.80
2018-04-01T12:28:28.802Z,45.30
2018-04-01T12:30:56.397Z,44.20
2018-04-01T12:33:24.020Z,43.90
2018-04-01T12:35:51.645Z,44.20
2018-04-01T12:38:19.309Z,45.40
2018-04-01T12:40:46.933Z,43.60
2018-04-01T12:43:14.548Z,44.30
2018-04-01T12:45:42.251Z,44.70
2018-04-01T12:48:09.837Z,44.20
2018-04-01T12:50:38.221Z,45.00
2018-04-01T12:53:06.599Z,44.80
2018-04-01T12:55:34.209Z,44.10
2018-04-01T12:58:01.822Z,43.70
2018-04-01T13:00:29.437Z,43.40
2018-04-01T13:02:57.057Z,43.70
2018-04-01T13:05:24.668Z,43.80
2018-04-01T13:07:52.282Z,43.70
2018-04-01T13:10:21.411Z,44.20
2018-04-01T13:12:49.031Z,43.80
2018-04-01T13:15:16.644Z,44.50
2018-04-01T13:17:44.256Z,44.20
2018-04-01T13:20:11.872Z,43.80
2018-04-01T13:22:39.485Z,44.00
2018-04-01T13:25:07.089Z,44.60
2018-04-01T13:27:35.474Z,44.70
2018-04-01T13:37:31.233Z,43.60
2018-04-01T13:39:58.852Z,42.10
2018-04-01T13:42:26.465Z,42.20
2018-04-01T13:44:54.069Z,42.70
2018-04-01T13:47:21.680Z,43.30
2018-04-01T13:49:49.296Z,43.30
2018-04-01T13:52:16.908Z,43.50
2018-04-01T13:54:44.539Z,44.60
2018-04-01T13:57:12.137Z,45.40
2018-04-01T13:59:39.765Z,45.30
2018-04-01T14:02:07.392Z,45.60
2018-04-01T14:04:35.767Z,46.60
2018-04-01T14:07:03.381Z,46.30
2018-04-01T14:09:31.001Z,45.20
2018-04-01T14:11:58.626Z,45.10
2018-04-01T14:14:26.244Z,45.80
2018-04-01T14:16:53.881Z,45.00
2018-04-01T14:19:21.491Z,44.90
2018-04-01T14:21:49.856Z,45.60
2018-04-01T14:24:18.232Z,41.80
2018-04-01T14:26:45.841Z,41.80
2018-04-01T14:29:13.457Z,43.50
2018-04-01T14:31:41.211Z,43.80
2018-04-01T14:34:08.850Z,44.30
2018-04-01T14:36:36.465Z,44.10
2018-04-01T14:39:04.100Z,43.60
2018-04-01T14:41:31.701Z,44.20
2018-04-01T14:43:59.373Z,44.80
2018-04-01T14:46:26.934Z,45.60
2018-04-01T14:48:54.572Z,44.00
2018-04-01T14:51:22.186Z,44.70
2018-04-01T14:53:49.800Z,44.90
2018-04-01T14:56:17.421Z,44.80
2018-04-01T14:58:45.029Z,44.70
2018-04-01T15:01:12.667Z,44.90
2018-04-01T15:03:40.293Z,45.00
2018-04-01T15:06:07.912Z,45.40
2018-04-01T15:08:35.521Z,44.90
2018-04-01T15:11:03.134Z,45.10
2018-04-01T15:13:30.757Z,45.10
2018-04-01T15:15:58.376Z,45.20
2018-04-01T15:18:26.010Z,45.60
2018-04-01T15:20:54.385Z,45.10
2018-04-01T15:23:22.768Z,45.20
2018-04-01T15:25:51.143Z,45.20
2018-04-01T15:28:19.517Z,46.40
2018-04-01T15:30:47.240Z,46.40
2018-04-01T15:33:14.842Z,45.70
2018-04-01T15:35:42.463Z,47.00
2018-04-01T15:38:10.065Z,47.10
2018-04-01T15:40:39.181Z,46.70
2018-04-01T15:43:06.805Z,46.20
2018-04-01T15:45:34.410Z,47.00
2018-04-01T15:48:02.026Z,46.90
2018-04-01T15:50:29.641Z,46.80
2018-04-01T15:52:57.277Z,46.70
2018-04-01T15:55:24.912Z,46.50
2018-04-01T15:57:52.513Z,46.20
2018-04-01T16:00:20.122Z,46.50
2018-04-01T16:02:48.690Z,46.20
2018-04-01T16:05:17.136Z,46.00
2018-04-01T16:07:44.750Z,45.90
2018-04-01T16:10:12.519Z,46.20
2018-04-01T16:12:40.902Z,45.90
2018-04-01T16:15:08.519Z,45.80
2018-04-01T16:17:36.129Z,45.80
2018-04-01T16:20:04.529Z,46.80
2018-04-01T16:22:32.148Z,46.70
2018-04-01T16:24:59.756Z,46.00
2018-04-01T16:27:28.141Z,45.80
2018-04-01T16:29:55.775Z,45.80
2018-04-01T16:32:23.416Z,46.30
2018-04-01T16:34:51.028Z,45.80
2018-04-01T16:37:19.406Z,46.40
2018-04-01T16:39:48.032Z,45.80
2018-04-01T16:42:15.637Z,45.80
2018-04-01T16:44:43.266Z,45.40
2018-04-01T16:47:10.869Z,45.60
2018-04-01T16:49:38.492Z,46.20
2018-04-01T16:52:06.097Z,45.80
2018-04-01T16:54:33.719Z,45.80
2018-04-01T16:57:01.334Z,45.60
2018-04-01T16:59:28.987Z,45.70
2018-04-01T17:01:56.582Z,45.40
2018-04-01T17:04:24.197Z,45.40
2018-04-01T17:06:51.827Z,45.60
2018-04-01T17:09:20.265Z,46.00
2018-04-01T17:11:48.570Z,46.00
2018-04-01T17:14:16.194Z,45.60
2018-04-01T17:16:43.800Z,45.40
2018-04-01T17:19:11.417Z,45.70
2018-04-01T17:21:39.029Z,45.80
2018-04-01T17:24:08.140Z,45.60
2018-04-01T17:26:36.527Z,45.90
2018-04-01T17:29:04.905Z,45.40
2018-04-01T17:31:33.270Z,45.40
2018-04-01T17:34:00.921Z,45.30
2018-04-01T17:36:28.529Z,45.40
2018-04-01T17:38:56.917Z,45.60
2018-04-01T17:41:24.564Z,45.60
2018-04-01T17:43:52.209Z,45.40
2018-04-01T17:46:19.816Z,45.30
2018-04-01T17:48:47.423Z,45.30
2018-04-01T17:51:15.043Z,44.20
2018-04-01T17:53:43.437Z,44.80
2018-04-01T17:56:11.794Z,45.00
2018-04-01T17:58:40.169Z,45.60
2018-04-01T18:01:07.820Z,45.60
2018-04-01T18:03:35.502Z,45.80
2018-04-01T18:06:03.126Z,45.00
2018-04-01T18:08:30.720Z,45.40
2018-04-01T18:10:58.332Z,45.20
2018-04-01T18:13:25.943Z,45.00
2018-04-01T18:15:53.617Z,45.00
2018-04-01T18:18:21.353Z,45.30
2018-04-01T18:20:48.996Z,45.00
2018-04-01T18:23:16.612Z,45.00
2018-04-01T18:25:44.263Z,45.10
2018-04-01T18:28:11.841Z,45.00
2018-04-01T18:30:39.450Z,44.80
2018-04-01T18:33:07.073Z,44.80
2018-04-01T18:35:34.706Z,45.80
2018-04-01T18:38:02.318Z,45.80
2018-04-01T18:40:29.949Z,45.60
2018-04-01T18:42:57.561Z,45.30
2018-04-01T18:45:25.173Z,45.60
2018-04-01T18:47:52.777Z,45.40
2018-04-01T18:50:21.909Z,45.20
2018-04-01T18:52:49.512Z,45.20
2018-04-01T18:55:17.121Z,45.40
2018-04-01T18:57:44.737Z,45.20
2018-04-01T19:00:12.374Z,45.30
2018-04-01T19:02:40.742Z,45.10
2018-04-01T19:05:09.133Z,45.10
2018-04-01T19:07:37.504Z,45.00
2018-04-01T19:10:05.902Z,44.90
2018-04-01T19:12:33.517Z,44.80
2018-04-01T19:15:01.162Z,44.90
2018-04-01T19:17:30.001Z,44.90
2018-04-01T19:19:58.114Z,44.90
2018-04-01T19:22:26.270Z,45.00
2018-04-01T19:24:54.320Z,45.30
2018-04-01T19:27:22.433Z,45.70
2018-04-01T19:29:51.300Z,47.20
2018-04-01T19:32:19.429Z,47.20
2018-04-01T19:34:47.541Z,46.60
2018-04-01T19:37:15.711Z,46.80
2018-04-01T19:39:43.825Z,47.00
2018-04-01T19:42:11.919Z,46.80
2018-04-01T19:44:40.069Z,46.40
2018-04-01T19:47:08.352Z,47.40
2018-04-01T19:49:37.975Z,47.20
2018-04-01T19:52:06.861Z,46.50
2018-04-01T19:54:35.734Z,47.10
2018-04-01T19:57:03.839Z,47.10
2018-04-01T19:59:32.700Z,46.60
2018-04-01T20:02:00.823Z,46.60
2018-04-01T20:04:29.077Z,46.30
2018-04-01T20:06:57.187Z,47.50
2018-04-01T20:09:25.313Z,47.00
2018-04-01T20:11:53.417Z,46.30
2018-04-01T20:14:22.294Z,46.60
2018-04-01T20:16:50.405Z,46.60
2018-04-01T20:19:18.526Z,47.40
2018-04-01T20:21:46.653Z,46.80
2018-04-01T20:24:14.769Z,46.40
2018-04-01T20:26:42.894Z,47.40
2018-04-01T20:29:11.769Z,46.40
2018-04-01T20:31:39.884Z,46.40
2018-04-01T20:34:07.990Z,46.30
2018-04-01T20:36:36.105Z,46.80
2018-04-01T20:39:04.217Z,46.20
2018-04-01T20:41:32.358Z,46.20
2018-04-01T20:44:00.454Z,47.40
2018-04-01T20:46:29.408Z,46.10
2018-04-01T20:48:57.570Z,46.10
2018-04-01T20:51:25.681Z,46.10
2018-04-01T20:53:53.866Z,46.30
2018-04-01T20:56:22.016Z,47.20
2018-04-01T20:58:50.087Z,46.00
2018-04-01T21:01:18.196Z,46.10
2018-04-01T21:03:46.325Z,46.00
2018-04-01T21:06:14.428Z,47.30
2018-04-01T21:08:42.570Z,46.00
2018-04-01T21:11:10.653Z,46.90
2018-04-01T21:13:38.777Z,46.30
2018-04-01T21:16:06.881Z,47.00
2018-04-01T21:18:34.984Z,45.90
2018-04-01T21:21:03.105Z,45.70
2018-04-01T21:23:32.738Z,46.30
2018-04-01T21:26:01.241Z,46.30
2018-04-01T21:28:29.347Z,45.80
2018-04-01T21:30:57.545Z,45.60
2018-04-01T21:33:25.659Z,46.20
2018-04-01T21:35:54.748Z,46.00
2018-04-01T21:38:22.845Z,46.00
2018-04-01T21:40:51.016Z,46.00
2018-04-01T21:43:19.153Z,45.90
2018-04-01T21:45:47.270Z,46.60
2018-04-01T21:48:16.146Z,45.80
2018-04-01T21:50:44.319Z,45.70
2018-04-01T21:53:12.444Z,45.60
2018-04-01T21:55:40.605Z,46.20
2018-04-01T21:58:08.729Z,45.60
2018-04-01T22:00:36.841Z,45.40
2018-04-01T22:03:04.944Z,46.50
2018-04-01T22:05:33.133Z,47.50
2018-04-01T22:08:01.280Z,46.10
2018-04-01T22:10:29.396Z,46.20
2018-04-01T22:12:57.628Z,45.80
2018-04-01T22:15:26.501Z,45.90
2018-04-01T22:17:54.621Z,45.80
2018-04-01T22:20:22.842Z,45.70
2018-04-01T22:23:03.618Z,46.40
2018-04-01T22:25:31.801Z,46.30
2018-04-01T22:27:59.924Z,45.40
2018-04-01T22:30:28.041Z,45.60
2018-04-01T22:32:56.153Z,45.80
2018-04-01T22:35:25.038Z,45.60
2018-04-01T22:37:53.141Z,45.60
2018-04-01T22:40:21.245Z,45.40
2018-04-01T22:42:49.364Z,46.00
2018-04-01T22:45:17.476Z,46.10
2018-04-01T22:47:45.593Z,45.70
2018-04-01T22:50:13.789Z,45.70
2018-04-01T22:52:41.864Z,46.00
2018-04-01T22:55:09.977Z,46.60
2018-04-01T22:57:38.101Z,45.70
2018-04-01T23:00:06.224Z,46.90
2018-04-01T23:02:35.120Z,45.90
2018-04-01T23:05:04.006Z,45.50
2018-04-01T23:07:32.894Z,45.50
2018-04-01T23:10:01.014Z,45.50
2018-04-01T23:12:29.120Z,45.80
2018-04-01T23:14:57.301Z,46.00
2018-04-01T23:17:25.404Z,45.60
2018-04-01T23:19:53.544Z,45.60
2018-04-01T23:22:21.649Z,46.00
2018-04-01T23:24:49.778Z,46.80
2018-04-01T23:27:17.957Z,45.30
2018-04-01T23:29:46.073Z,45.40
2018-04-01T23:32:14.965Z,45.90
2018-04-01T23:34:43.072Z,45.80
2018-04-01T23:37:11.953Z,45.60
2018-04-01T23:39:40.842Z,46.30
2018-04-01T23:42:08.950Z,46.20
2018-04-01T23:44:37.049Z,45.40
2018-04-01T23:47:05.161Z,45.50
2018-04-01T23:49:33.272Z,45.20
2018-04-01T23:52:01.402Z,45.40
2018-04-01T23:54:30.332Z,45.40
2018-04-01T23:56:59.217Z,45.30
2018-04-01T23:59:28.106Z,45.80
